Time;durP1;ratioP1;P1;durP2;ratioP2;P2;SDS_P1;SDS_P2;PMS_P1;PMS_P2;Temp;Humidity;BMP_temperature;BMP_pressure;BME280_temperature;BME280_humidity;BME280_pressure;Samples;Min_cycle;Max_cycle;Signal;HPM_P1;HPM_P2
2021/06/21 07:23:54;;;;;;;0.42;0.42;;;;;;;19.35;68.17;96195.41;88173;207;64004;-64
2021/06/21 07:24:25;;;;;;;0.50;0.50;;;;;;;19.35;68.36;96189.91;29394;199;64009;-63
2021/06/21 07:24:57;;;;;;;0.50;0.50;;;;;;;19.37;68.96;96196.63;29395;245;63005;-70
2021/06/21 07:25:28;;;;;;;0.40;0.40;;;;;;;19.41;68.58;96191.94;29395;246;63009;-70
2021/06/21 07:25:59;;;;;;;0.40;0.40;;;;;;;19.45;68.32;96192.00;29395;206;63004;-61
2021/06/21 07:26:31;;;;;;;0.50;0.50;;;;;;;19.45;68.00;96191.22;29395;216;63009;-60
2021/06/21 07:27:04;;;;;;;0.40;0.40;;;;;;;19.48;69.42;96193.25;29395;236;63004;-60
2021/06/21 07:27:36;;;;;;;0.40;0.40;;;;;;;19.50;69.39;96190.91;29395;218;63009;-61
2021/06/21 07:28:08;;;;;;;0.40;0.40;;;;;;;19.51;69.99;96187.03;29395;222;63012;-62
2021/06/21 07:28:39;;;;;;;0.40;0.40;;;;;;;19.55;69.09;96193.41;29395;294;63008;-62
2021/06/21 07:29:11;;;;;;;0.40;0.40;;;;;;;19.56;68.39;96189.47;29394;280;64009;-62
2021/06/21 07:29:44;;;;;;;0.40;0.40;;;;;;;19.58;69.39;96193.47;29395;308;63009;-64
2021/06/21 07:30:17;;;;;;;0.40;0.40;;;;;;;19.61;69.40;96192.72;29395;263;63005;-70
2021/06/21 07:30:48;;;;;;;0.35;0.35;;;;;;;19.68;67.88;96189.31;29395;418;63009;-69
2021/06/21 07:31:20;;;;;;;0.40;0.40;;;;;;;19.72;67.14;96173.66;29395;230;63005;-62
2021/06/21 07:31:51;;;;;;;0.40;0.40;;;;;;;19.71;68.48;96175.59;29394;268;64013;-62
2021/06/21 07:32:22;;;;;;;0.40;0.40;;;;;;;19.79;66.30;96175.69;29395;293;63005;-71
2021/06/21 07:32:53;;;;;;;0.40;0.40;;;;;;;19.85;65.81;96183.28;29394;271;64009;-70
2021/06/21 07:33:25;;;;;;;0.40;0.40;;;;;;;19.86;65.92;96182.09;29395;239;63004;-68
2021/06/21 07:33:57;;;;;;;0.40;0.40;;;;;;;19.88;65.94;96173.47;29395;299;63009;-60
2021/06/21 07:34:28;;;;;;;0.40;0.40;;;;;;;19.87;66.14;96177.41;29395;296;63004;-65
2021/06/21 07:34:59;;;;;;;0.40;0.40;;;;;;;19.83;66.11;96180.09;29395;265;63009;-59
2021/06/21 07:35:30;;;;;;;0.40;0.40;;;;;;;19.83;67.33;96177.34;29395;420;63004;-66
2021/06/21 07:36:02;;;;;;;0.32;0.32;;;;;;;19.82;67.58;96172.19;29394;234;64013;-65
2021/06/21 07:36:34;;;;;;;0.40;0.40;;;;;;;19.77;65.21;96178.00;29395;197;63015;-65
2021/06/21 07:37:06;;;;;;;0.40;0.40;;;;;;;19.76;66.68;96177.22;29395;220;63009;-64
2021/06/21 07:37:37;;;;;;;0.40;0.40;;;;;;;19.77;67.28;96180.75;29394;264;64009;-67
2021/06/21 07:38:09;;;;;;;0.40;0.40;;;;;;;19.77;66.48;96173.31;29394;265;64014;-62
2021/06/21 07:38:41;;;;;;;0.40;0.40;;;;;;;19.78;67.17;96183.16;29395;265;63005;-63
2021/06/21 07:39:13;;;;;;;0.40;0.40;;;;;;;19.77;67.57;96180.75;29395;275;63009;-62
2021/06/21 07:39:44;;;;;;;0.40;0.40;;;;;;;19.77;68.80;96184.31;29395;199;63007;-63
2021/06/21 07:40:16;;;;;;;0.40;0.40;;;;;;;19.80;68.87;96186.34;29395;225;63009;-66
2021/06/21 07:40:47;;;;;;;0.40;0.40;;;;;;;19.89;66.89;96191.59;29394;237;64009;-68
2021/06/21 07:41:19;;;;;;;0.40;0.40;;;;;;;19.95;66.67;96185.41;29395;196;63009;-66
2021/06/21 07:41:50;;;;;;;0.30;0.30;;;;;;;19.98;66.30;96179.16;29395;221;63004;-60
2021/06/21 07:42:21;;;;;;;0.40;0.40;;;;;;;19.98;67.07;96190.16;29395;209;63009;-60
2021/06/21 07:43:01;;;;;;;0.40;0.40;;;;;;;20.00;68.09;96187.84;29394;222;64009;-63
2021/06/21 07:43:34;;;;;;;0.40;0.40;;;;;;;20.03;68.23;96191.81;29395;316;63008;-64
2021/06/21 07:44:05;;;;;;;0.30;0.30;;;;;;;20.05;68.69;96195.78;29395;220;63004;-67
2021/06/21 07:44:38;;;;;;;0.30;0.30;;;;;;;20.12;66.97;96191.53;29395;209;63009;-75
2021/06/21 07:45:11;;;;;;;0.30;0.30;;;;;;;20.15;65.30;96193.53;29395;284;63005;-65
2021/06/21 07:45:43;;;;;;;0.30;0.30;;;;;;;20.25;63.94;96190.16;29395;221;63009;-67
2021/06/21 07:46:15;;;;;;;0.40;0.40;;;;;;;20.26;66.32;96195.28;29395;257;63005;-66
2021/06/21 07:46:47;;;;;;;0.30;0.30;;;;;;;20.27;65.27;96190.56;29395;280;63009;-59
2021/06/21 07:47:19;;;;;;;0.30;0.30;;;;;;;20.31;64.39;96191.41;29395;222;63005;-62
2021/06/21 07:47:52;;;;;;;0.40;0.40;;;;;;;20.33;65.25;96189.87;29394;203;64013;-64
2021/06/21 07:48:23;;;;;;;0.30;0.30;;;;;;;20.34;64.75;96196.19;29395;244;63004;-63
2021/06/21 07:48:55;;;;;;;0.30;0.30;;;;;;;20.36;66.01;96191.09;29395;282;63018;-62
2021/06/21 07:49:26;;;;;;;0.30;0.30;;;;;;;20.38;66.18;96191.56;29395;278;63004;-63
2021/06/21 07:49:57;;;;;;;0.30;0.30;;;;;;;20.40;66.16;96189.22;29394;279;64013;-61
2021/06/21 07:50:30;;;;;;;0.40;0.40;;;;;;;20.43;67.38;96193.19;29395;244;63000;-62
2021/06/21 07:51:03;;;;;;;0.40;0.40;;;;;;;20.45;66.78;96190.84;29395;215;63008;-61
2021/06/21 07:51:34;;;;;;;0.40;0.40;;;;;;;20.45;67.85;96186.12;29395;260;63011;-63
2021/06/21 07:52:06;;;;;;;0.40;0.40;;;;;;;20.50;65.93;96191.31;29395;218;63009;-67
2021/06/21 07:52:37;;;;;;;0.40;0.40;;;;;;;20.55;65.29;96185.47;29394;222;64009;-64
2021/06/21 07:53:09;;;;;;;0.32;0.32;;;;;;;20.57;65.13;96196.91;29394;274;64014;-63
2021/06/21 07:53:46;;;;;;;0.30;0.30;;;;;;;20.61;64.98;96200.50;29395;252;63005;-68
2021/06/21 07:54:19;;;;;;;0.40;0.40;;;;;;;20.66;64.36;96191.91;29395;265;63009;-63
2021/06/21 07:54:50;;;;;;;0.30;0.30;;;;;;;20.68;64.80;96192.34;29395;229;63006;-67
2021/06/21 07:55:27;;;;;;;0.40;0.40;;;;;;;20.72;64.42;96195.94;29395;212;63009;-73
2021/06/21 07:55:59;;;;;;;0.30;0.30;;;;;;;20.74;62.98;96193.59;29394;214;64009;-76
2021/06/21 07:56:30;;;;;;;0.40;0.40;;;;;;;20.73;62.78;96194.78;29395;247;63020;-67
2021/06/21 07:57:01;;;;;;;0.30;0.30;;;;;;;20.77;61.87;96197.56;29395;253;63004;-57
2021/06/21 07:57:32;;;;;;;0.40;0.40;;;;;;;20.76;62.36;96200.72;29395;202;63009;-71
2021/06/21 07:58:04;;;;;;;0.30;0.30;;;;;;;20.78;61.94;96192.84;29395;286;63004;-68
2021/06/21 07:58:39;;;;;;;0.40;0.40;;;;;;;20.79;62.36;96188.94;29395;272;63009;-66
2021/06/21 07:59:11;;;;;;;1.40;1.30;;;;;;;20.77;62.05;96185.75;29395;217;63005;-64
2021/06/21 07:59:42;;;;;;;0.37;0.37;;;;;;;20.71;63.32;96191.59;29395;219;63009;-65
2021/06/21 08:00:14;;;;;;;0.30;0.30;;;;;;;20.68;64.86;96197.06;29395;245;63005;-61
2021/06/21 08:00:46;;;;;;;0.40;0.40;;;;;;;20.60;63.60;96192.63;29394;285;64013;-69
2021/06/21 08:01:17;;;;;;;0.40;0.40;;;;;;;20.63;63.15;96181.63;29395;198;63005;-62
2021/06/21 08:01:48;;;;;;;0.40;0.40;;;;;;;20.62;63.41;96180.06;29395;211;63009;-62
2021/06/21 08:02:20;;;;;;;0.30;0.30;;;;;;;20.64;64.17;96182.44;29395;223;63005;-64
2021/06/21 08:02:52;;;;;;;0.30;0.30;;;;;;;20.66;62.64;96180.91;29395;211;63009;-61
2021/06/21 08:03:24;;;;;;;0.30;0.30;;;;;;;20.69;63.64;96185.66;29395;198;63004;-61
2021/06/21 08:03:56;;;;;;;0.30;0.30;;;;;;;20.71;63.74;96188.03;29395;215;63009;-62
2021/06/21 08:04:28;;;;;;;0.40;0.40;;;;;;;20.72;64.00;96187.66;29394;197;64009;-59
2021/06/21 08:04:59;;;;;;;0.30;0.30;;;;;;;20.79;62.60;96183.41;29395;278;63009;-61
2021/06/21 08:05:31;;;;;;;0.30;0.30;;;;;;;20.84;63.12;96188.56;29395;292;63011;-69
2021/06/21 08:06:03;;;;;;;0.30;0.30;;;;;;;20.93;61.74;96180.81;29395;196;63009;-68
2021/06/21 08:06:37;;;;;;;0.30;0.30;;;;;;;20.95;62.04;96186.75;29395;224;63005;-61
2021/06/21 08:07:08;;;;;;;0.30;0.30;;;;;;;20.93;63.22;96183.56;29395;224;63009;-64
2021/06/21 08:07:40;;;;;;;0.30;0.30;;;;;;;20.93;63.72;96189.06;29395;312;63005;-60
2021/06/21 08:08:12;;;;;;;0.30;0.30;;;;;;;20.97;62.25;96179.69;29395;198;63009;-60
2021/06/21 08:08:43;;;;;;;0.30;0.30;;;;;;;21.05;60.74;96175.84;29394;208;64022;-60
2021/06/21 08:09:14;;;;;;;0.40;0.40;;;;;;;21.08;61.63;96180.59;29394;207;64013;-62
2021/06/21 08:09:46;;;;;;;0.30;0.30;;;;;;;21.07;62.56;96178.22;29394;218;64018;-61
2021/06/21 08:10:17;;;;;;;0.30;0.30;;;;;;;21.09;62.73;96186.91;29395;239;63009;-71
2021/06/21 08:10:48;;;;;;;0.30;0.30;;;;;;;21.15;60.82;96179.84;29395;228;63011;-64
2021/06/21 08:11:20;;;;;;;0.30;0.30;;;;;;;21.17;63.83;96188.53;29394;271;64013;-60
2021/06/21 08:11:51;;;;;;;0.30;0.30;;;;;;;21.18;61.76;96184.63;29395;199;63004;-66
2021/06/21 08:12:22;;;;;;;0.40;0.40;;;;;;;21.19;61.83;96190.94;29395;202;63009;-64
2021/06/21 08:12:53;;;;;;;0.30;0.30;;;;;;;21.20;62.18;96184.25;29395;196;63004;-63
2021/06/21 08:13:25;;;;;;;0.30;0.30;;;;;;;21.19;62.61;96183.44;29395;317;63008;-64
2021/06/21 08:13:56;;;;;;;0.30;0.30;;;;;;;21.18;61.95;96184.63;29395;244;63012;-64
2021/06/21 08:14:27;;;;;;;0.30;0.30;;;;;;;21.19;62.03;96190.94;29395;217;63009;-61
2021/06/21 08:14:59;;;;;;;0.30;0.30;;;;;;;21.18;62.38;96184.63;29394;298;64023;-64
2021/06/21 08:15:30;;;;;;;0.35;0.35;;;;;;;21.19;62.85;96186.22;29395;356;63009;-69
2021/06/21 08:16:03;;;;;;;0.40;0.40;;;;;;;21.20;61.29;96182.28;29395;217;63005;-66
2021/06/21 08:16:34;;;;;;;0.30;0.30;;;;;;;21.22;61.15;96185.47;29395;417;63009;-65
2021/06/21 08:17:06;;;;;;;0.30;0.30;;;;;;;21.21;61.12;96183.88;29395;250;63005;-62
2021/06/21 08:17:38;;;;;;;0.30;0.30;;;;;;;21.22;62.28;96188.25;29395;221;63009;-61
2021/06/21 08:18:10;;;;;;;0.30;0.30;;;;;;;21.24;62.14;96191.41;29395;376;63004;-65
2021/06/21 08:18:41;;;;;;;0.30;0.30;;;;;;;21.27;62.07;96196.19;29394;204;64013;-64
2021/06/21 08:19:12;;;;;;;0.40;0.40;;;;;;;21.31;62.10;96193.47;29395;245;63004;-64
2021/06/21 08:19:45;;;;;;;0.30;0.30;;;;;;;21.31;63.64;96188.72;29395;252;63009;-58
2021/06/21 08:20:16;;;;;;;0.30;0.30;;;;;;;21.31;62.33;96188.72;29395;246;63011;-62
2021/06/21 08:20:50;;;;;;;0.30;0.30;;;;;;;21.29;61.49;96185.56;29395;224;63008;-60
2021/06/21 08:21:22;;;;;;;0.40;0.40;;;;;;;21.30;62.21;96189.91;29395;234;63005;-62
2021/06/21 08:21:53;;;;;;;0.35;0.35;;;;;;;21.33;62.61;96191.13;29395;209;63009;-62
2021/06/21 08:22:25;;;;;;;0.30;0.30;;;;;;;21.35;62.67;96188.78;29395;255;63005;-62
2021/06/21 08:22:56;;;;;;;0.35;0.35;;;;;;;21.37;62.79;96197.47;29395;278;63009;-68
2021/06/21 08:23:30;;;;;;;0.30;0.30;;;;;;;21.42;61.96;96190.81;29395;220;63005;-67
2021/06/21 08:24:01;;;;;;;0.30;0.30;;;;;;;21.51;61.08;96192.06;29394;216;64013;-66
2021/06/21 08:24:32;;;;;;;0.30;0.30;;;;;;;21.57;60.42;96189.75;29394;226;64009;-80
2021/06/21 08:25:05;;;;;;;0.40;0.40;;;;;;;21.58;59.99;96188.56;29395;206;63009;-66
2021/06/21 08:25:37;;;;;;;0.40;0.40;;;;;;;21.56;59.01;96177.13;29395;213;63004;-65
2021/06/21 08:26:09;;;;;;;0.40;0.40;;;;;;;21.53;59.27;96184.19;29395;222;63009;-67
2021/06/21 08:26:40;;;;;;;0.37;0.37;;;;;;;21.48;58.30;96189.28;29395;225;63007;-67
2021/06/21 08:27:12;;;;;;;0.32;0.32;;;;;;;21.44;59.50;96180.97;29395;237;63009;-64
2021/06/21 08:27:43;;;;;;;0.40;0.40;;;;;;;21.42;59.43;96190.81;29395;236;63004;-68
2021/06/21 08:28:15;;;;;;;0.30;0.30;;;;;;;21.39;59.73;96192.38;29394;215;64013;-71
2021/06/21 08:28:47;;;;;;;0.30;0.30;;;;;;;21.38;60.11;96182.50;29395;227;63005;-64
2021/06/21 08:29:18;;;;;;;0.30;0.30;;;;;;;21.36;59.95;96190.34;29394;203;64014;-53
2021/06/21 08:29:49;;;;;;;0.30;0.30;;;;;;;21.34;59.31;96182.47;29394;228;64009;-66
2021/06/21 08:30:21;;;;;;;0.30;0.30;;;;;;;21.33;59.56;96191.91;29395;235;63009;-64
2021/06/21 08:30:52;;;;;;;0.30;0.30;;;;;;;21.34;59.30;96184.41;29395;217;63005;-69
2021/06/21 08:31:23;;;;;;;0.30;0.30;;;;;;;21.35;59.51;96191.53;29395;240;63018;-55
2021/06/21 08:31:55;;;;;;;0.35;0.35;;;;;;;21.33;60.03;96180.06;29395;199;63005;-65
2021/06/21 08:32:27;;;;;;;0.30;0.30;;;;;;;21.33;60.57;96188.34;29395;198;63009;-66
2021/06/21 08:32:59;;;;;;;0.30;0.30;;;;;;;21.33;60.69;96188.34;29395;219;63004;-67
2021/06/21 08:33:30;;;;;;;0.30;0.30;;;;;;;21.33;60.17;96197.44;29394;277;64013;-68
2021/06/21 08:34:01;;;;;;;0.30;0.30;;;;;;;21.40;59.49;96191.97;29395;222;63004;-75
2021/06/21 08:34:33;;;;;;;0.30;0.30;;;;;;;21.47;59.00;96185.75;29394;204;64013;-66
2021/06/21 08:35:07;;;;;;;0.30;0.30;;;;;;;21.48;59.08;96183.78;29395;196;63004;-63
2021/06/21 08:35:38;;;;;;;0.30;0.30;;;;;;;21.46;59.49;96188.88;29395;231;63008;-67
2021/06/21 08:36:10;;;;;;;0.30;0.30;;;;;;;21.46;59.38;96188.88;29395;215;63004;-68
2021/06/21 08:36:41;;;;;;;0.30;0.30;;;;;;;21.49;59.50;96188.09;29395;217;63009;-62
2021/06/21 08:37:12;;;;;;;0.30;0.30;;;;;;;21.49;59.83;96193.62;29395;254;63005;-66
2021/06/21 08:37:43;;;;;;;0.30;0.30;;;;;;;21.50;59.78;96195.19;29395;266;63009;-61
2021/06/21 08:38:15;;;;;;;0.30;0.30;;;;;;;21.50;59.68;96189.69;29395;226;63005;-61
2021/06/21 08:38:46;;;;;;;0.30;0.30;;;;;;;21.50;60.57;96200.72;29394;212;64013;-62
2021/06/21 08:39:17;;;;;;;0.30;0.30;;;;;;;21.51;60.93;96196.78;29395;204;63005;-63
2021/06/21 08:39:50;;;;;;;0.30;0.30;;;;;;;21.50;61.03;96197.97;29395;258;63009;-62
2021/06/21 08:40:23;;;;;;;0.30;0.30;;;;;;;21.55;60.22;96197.63;29395;238;63005;-62
2021/06/21 08:40:54;;;;;;;0.30;0.30;;;;;;;21.57;60.51;96201.59;29395;209;63009;-62
2021/06/21 08:41:25;;;;;;;0.30;0.30;;;;;;;21.56;60.93;96204.72;29394;197;64009;-62
2021/06/21 08:41:59;;;;;;;0.30;0.30;;;;;;;21.59;60.82;96199.25;29394;251;64013;-63
2021/06/21 08:42:31;;;;;;;0.30;0.30;;;;;;;21.62;61.09;96203.22;29395;219;63004;-61
2021/06/21 08:43:03;;;;;;;0.30;0.30;;;;;;;21.64;61.11;96206.37;29395;283;63008;-61
2021/06/21 08:43:35;;;;;;;0.30;0.30;;;;;;;21.66;60.58;96206.78;29394;261;64004;-63
2021/06/21 08:44:06;;;;;;;0.30;0.30;;;;;;;21.68;60.83;96215.50;29395;197;63009;-63
2021/06/21 08:44:37;;;;;;;0.40;0.40;;;;;;;21.76;59.19;96213.59;29394;219;64009;-62
2021/06/21 08:45:10;;;;;;;0.40;0.40;;;;;;;21.79;61.69;96208.09;29395;216;63009;-60
2021/06/21 08:45:43;;;;;;;0.40;0.40;;;;;;;21.84;60.71;96215.22;29395;219;63005;-62
2021/06/21 08:46:18;;;;;;;0.30;0.30;;;;;;;21.83;61.69;96214.41;29395;252;63009;-61
2021/06/21 08:46:51;;;;;;;0.30;0.30;;;;;;;21.87;59.73;96209.72;29395;219;63005;-60
2021/06/21 08:47:22;;;;;;;0.30;0.30;;;;;;;21.89;60.10;96210.12;29395;243;63009;-63
2021/06/21 08:47:55;;;;;;;0.30;0.30;;;;;;;21.92;60.19;96211.34;29394;212;64009;-60
2021/06/21 08:48:30;;;;;;;0.32;0.32;;;;;;;21.95;59.83;96210.59;29395;246;63017;-68
2021/06/21 08:49:07;;;;;;;0.40;0.40;;;;;;;22.00;57.65;96202.72;29395;218;63015;-59
2021/06/21 08:49:44;;;;;;;0.40;0.40;;;;;;;22.00;59.16;96211.03;29394;248;64013;-64
2021/06/21 08:50:17;;;;;;;0.30;0.30;;;;;;;22.01;57.29;96204.34;29395;236;63004;-69
2021/06/21 08:50:49;;;;;;;0.30;0.30;;;;;;;22.01;56.93;96203.56;29395;228;63008;-65
2021/06/21 08:51:20;;;;;;;0.30;0.30;;;;;;;22.00;56.96;96211.03;29395;221;63005;-64
2021/06/21 08:51:52;;;;;;;0.30;0.30;;;;;;;21.97;57.06;96217.31;29395;233;63009;-61
2021/06/21 08:52:26;;;;;;;0.30;0.30;;;;;;;21.96;59.54;96212.97;29395;216;63005;-61
2021/06/21 08:52:59;;;;;;;0.30;0.30;;;;;;;21.99;61.96;96217.72;29394;226;64013;-60
2021/06/21 08:53:30;;;;;;;0.32;0.32;;;;;;;22.06;59.08;96208.72;29394;222;64009;-60
2021/06/21 08:54:02;;;;;;;0.30;0.30;;;;;;;22.11;59.36;96207.59;29395;213;63027;-62
2021/06/21 08:54:33;;;;;;;0.32;0.32;;;;;;;22.14;58.81;96212.34;29395;197;63005;-65
2021/06/21 08:55:06;;;;;;;0.40;0.40;;;;;;;22.15;59.24;96223.00;29395;252;63019;-62
2021/06/21 08:55:38;;;;;;;0.30;0.30;;;;;;;22.15;58.47;96211.16;29395;204;63004;-63
2021/06/21 08:56:10;;;;;;;0.30;0.30;;;;;;;22.17;59.50;96217.91;29395;228;63009;-63
2021/06/21 08:56:41;;;;;;;0.30;0.30;;;;;;;22.17;57.75;96212.37;29395;196;63004;-61
2021/06/21 08:57:13;;;;;;;0.30;0.30;;;;;;;22.16;60.50;96221.84;29395;224;63008;-60
2021/06/21 08:57:48;;;;;;;0.30;0.30;;;;;;;22.17;59.71;96217.09;29395;263;63004;-60
2021/06/21 08:58:19;;;;;;;0.30;0.30;;;;;;;22.21;57.92;96215.13;29394;230;64014;-61
2021/06/21 08:58:50;;;;;;;0.30;0.30;;;;;;;22.23;57.28;96210.81;29395;246;63005;-63
2021/06/21 08:59:21;;;;;;;0.30;0.30;;;;;;;22.24;57.82;96212.41;29395;198;63009;-62
2021/06/21 08:59:53;;;;;;;0.30;0.30;;;;;;;22.27;57.95;96217.16;29395;218;63005;-67
2021/06/21 09:00:24;;;;;;;0.30;0.30;;;;;;;22.33;56.60;96217.59;29394;213;64013;-63
2021/06/21 09:00:55;;;;;;;0.35;0.35;;;;;;;22.31;58.22;96217.97;29395;198;63005;-62
2021/06/21 09:01:27;;;;;;;0.30;0.30;;;;;;;22.29;59.54;96216.78;29395;227;63009;-60
2021/06/21 09:01:58;;;;;;;0.30;0.30;;;;;;;22.25;59.84;96213.19;29395;202;63005;-59
2021/06/21 09:02:30;;;;;;;0.30;0.30;;;;;;;22.25;60.84;96215.94;29395;234;63009;-60
2021/06/21 09:03:02;;;;;;;0.30;0.30;;;;;;;22.28;59.92;96212.41;29395;198;63004;-61
2021/06/21 09:03:35;;;;;;;0.30;0.30;;;;;;;22.32;59.16;96216.00;29395;245;63027;-62
2021/06/21 09:04:10;;;;;;;0.30;0.30;;;;;;;22.39;57.77;96211.31;29395;223;63004;-62
2021/06/21 09:04:42;;;;;;;0.30;0.30;;;;;;;22.46;57.28;96209.78;29395;243;63009;-61
2021/06/21 09:05:13;;;;;;;0.30;0.30;;;;;;;22.46;57.45;96207.81;29394;202;64008;-60
2021/06/21 09:05:45;;;;;;;0.30;0.30;;;;;;;22.50;57.30;96213.37;29394;219;64014;-61
2021/06/21 09:06:22;;;;;;;0.30;0.30;;;;;;;22.49;57.88;96207.03;29395;199;63005;-62
2021/06/21 09:06:54;;;;;;;0.30;0.30;;;;;;;22.49;57.84;96217.31;29395;234;63009;-60
2021/06/21 09:07:28;;;;;;;0.30;0.30;;;;;;;22.45;57.86;96209.00;29395;229;63017;-60
2021/06/21 09:08:01;;;;;;;0.30;0.30;;;;;;;22.43;58.82;96208.59;29395;221;63009;-60
2021/06/21 09:09:02;;;;;;;0.40;0.40;;;;;;;22.51;56.21;96204.69;29395;240;63005;-61
2021/06/21 09:09:34;;;;;;;0.30;0.30;;;;;;;22.50;56.07;96192.03;29417;299;63009;-61
2021/06/21 09:10:25;;;;;;;0.30;0.30;;;;;;;22.52;56.67;96200.75;29395;239;63004;-64
2021/06/21 09:10:56;;;;;;;0.30;0.30;;;;;;;22.52;56.83;96195.22;29394;237;64013;-61
2021/06/21 09:12:05;;;;;;;0.30;0.30;;;;;;;22.54;57.14;96203.88;29395;228;63004;-61
2021/06/21 09:12:37;;;;;;;0.30;0.30;;;;;;;22.54;58.09;96200.31;29395;256;63008;-62
2021/06/21 09:13:16;;;;;;;0.30;0.30;;;;;;;22.53;56.91;96207.81;29395;240;63005;-61
2021/06/21 09:13:47;;;;;;;0.30;0.30;;;;;;;22.52;58.13;96202.72;29395;200;63009;-70
2021/06/21 09:14:29;;;;;;;0.30;0.30;;;;;;;22.52;57.82;96200.75;29395;237;63005;-63
2021/06/21 09:15:09;;;;;;;0.30;0.30;;;;;;;22.52;57.61;96195.22;29395;197;63009;-62
2021/06/21 09:15:52;;;;;;;0.30;0.30;;;;;;;22.53;57.32;96191.25;29394;208;64009;-60
2021/06/21 09:16:42;;;;;;;0.30;0.30;;;;;;;22.58;55.42;96190.87;29395;242;63009;-65
2021/06/21 09:17:18;;;;;;;0.30;0.30;;;;;;;22.56;55.07;96193.22;29395;234;63016;-65
2021/06/21 09:17:49;;;;;;;0.30;0.30;;;;;;;22.57;53.74;96181.00;29395;258;63019;-69
2021/06/21 09:18:35;;;;;;;0.30;0.30;;;;;;;22.55;54.37;96183.34;29395;215;63004;-72
2021/06/21 09:19:07;;;;;;;0.30;0.30;;;;;;;22.53;54.33;96191.25;29395;228;63009;-65
2021/06/21 09:19:53;;;;;;;0.30;0.30;;;;;;;22.51;54.40;96188.09;29395;275;63004;-62
2021/06/21 09:20:24;;;;;;;0.40;0.40;;;;;;;22.48;54.23;96188.06;29394;232;64013;-63
2021/06/21 09:21:22;;;;;;;0.30;0.30;;;;;;;22.45;54.84;96189.63;29395;208;63005;-62
2021/06/21 09:21:54;;;;;;;0.30;0.30;;;;;;;22.44;55.34;96182.53;29395;226;63005;-70
2021/06/21 09:22:53;;;;;;;0.30;0.30;;;;;;;22.39;54.84;96180.91;29395;199;63020;-60
2021/06/21 09:23:31;;;;;;;4.05;3.80;;;;;;;22.44;54.95;96187.25;29394;279;64009;-64
2021/06/21 09:24:23;;;;;;;0.30;0.30;;;;;;;22.47;56.01;96203.88;29395;253;63009;-65
2021/06/21 09:25:07;;;;;;;0.30;0.30;;;;;;;22.48;55.98;96202.69;29417;202;63004;-61
2021/06/21 09:25:41;;;;;;;0.30;0.30;;;;;;;22.49;56.14;96193.22;29395;271;63009;-69
2021/06/21 09:26:28;;;;;;;0.30;0.30;;;;;;;22.50;54.01;96192.03;29395;212;63004;-64
2021/06/21 09:27:01;;;;;;;0.30;0.30;;;;;;;22.53;53.75;96185.72;29395;290;63009;-72
2021/06/21 09:27:33;;;;;;;0.30;0.30;;;;;;;22.55;53.13;96194.41;29394;202;64008;-69
2021/06/21 09:28:05;;;;;;;0.30;0.30;;;;;;;22.56;52.62;96184.94;29395;206;63008;-71
2021/06/21 09:28:37;;;;;;;0.30;0.30;;;;;;;22.53;52.54;96180.19;29395;210;63005;-61
2021/06/21 09:29:08;;;;;;;0.30;0.30;;;;;;;22.48;53.04;96191.63;29395;207;63009;-62
2021/06/21 09:29:41;;;;;;;0.30;0.30;;;;;;;22.43;53.22;96188.44;29395;246;63005;-61
2021/06/21 09:30:14;;;;;;;0.30;0.30;;;;;;;22.40;53.85;96192.75;29394;221;64013;-61
2021/06/21 09:30:51;;;;;;;0.30;0.30;;;;;;;22.37;54.44;96193.53;29394;226;64009;-63
2021/06/21 09:31:23;;;;;;;0.30;0.30;;;;;;;22.33;54.52;96196.28;29395;216;63009;-64
2021/06/21 09:31:57;;;;;;;0.30;0.30;;;;;;;22.29;54.47;96180.84;29395;202;63005;-63
2021/06/21 09:32:41;;;;;;;0.30;0.30;;;;;;;22.26;54.64;96190.69;29395;230;63009;-62
2021/06/21 09:33:30;;;;;;;0.30;0.30;;;;;;;22.24;54.55;96186.72;29395;203;63004;-62
2021/06/21 09:34:13;;;;;;;0.30;0.30;;;;;;;22.24;55.77;96189.50;29395;227;63009;-58
2021/06/21 09:34:45;;;;;;;0.30;0.30;;;;;;;22.26;55.26;96190.69;29395;210;63004;-61
2021/06/21 09:35:47;;;;;;;0.30;0.30;;;;;;;22.32;55.71;96196.66;29394;237;64013;-61
2021/06/21 09:36:29;;;;;;;0.30;0.30;;;;;;;22.38;54.45;96184.06;29394;235;64009;-66
2021/06/21 09:37:18;;;;;;;0.30;0.30;;;;;;;22.37;59.21;96204.59;29395;205;63009;-60
2021/06/21 09:37:49;;;;;;;0.30;0.30;;;;;;;22.35;59.86;96198.66;29395;197;63005;-61
2021/06/21 09:38:21;;;;;;;0.30;0.30;;;;;;;22.34;57.27;96191.53;29395;238;63009;-61
2021/06/21 09:39:25;;;;;;;0.30;0.30;;;;;;;22.36;59.84;96201.03;29395;262;63005;-60
2021/06/21 09:39:57;;;;;;;0.30;0.30;;;;;;;22.39;56.72;96191.97;29395;229;63004;-62
2021/06/21 09:40:37;;;;;;;0.30;0.30;;;;;;;22.44;59.78;96204.63;29395;218;63009;-60
2021/06/21 09:41:09;;;;;;;0.30;0.30;;;;;;;22.50;58.52;96197.56;29416;237;64009;-61
2021/06/21 09:41:40;;;;;;;0.30;0.30;;;;;;;22.53;57.72;96193.22;29395;227;63009;-65
2021/06/21 09:42:19;;;;;;;0.30;0.30;;;;;;;22.58;55.89;96192.84;29395;211;63004;-72
2021/06/21 09:42:51;;;;;;;0.30;0.30;;;;;;;22.64;54.62;96186.56;29395;204;63008;-66
2021/06/21 09:43:28;;;;;;;0.30;0.30;;;;;;;22.69;54.42;96186.19;29395;197;63005;-63
2021/06/21 09:44:00;;;;;;;0.30;0.30;;;;;;;22.70;53.76;96185.00;29394;270;64014;-62
2021/06/21 09:44:50;;;;;;;0.30;0.30;;;;;;;22.74;54.31;96198.84;29395;203;63005;-65
2021/06/21 09:45:21;;;;;;;0.30;0.30;;;;;;;22.76;54.01;96192.94;29395;197;63009;-63
2021/06/21 09:46:10;;;;;;;0.30;0.30;;;;;;;22.80;53.48;96193.78;29395;292;63005;-69
2021/06/21 09:46:41;;;;;;;0.30;0.30;;;;;;;22.83;52.92;96190.25;29395;274;63009;-64
2021/06/21 09:47:38;;;;;;;0.30;0.30;;;;;;;22.83;52.75;96184.72;29395;199;63005;-61
2021/06/21 09:48:30;;;;;;;0.30;0.30;;;;;;;22.80;53.47;96197.34;29394;203;64013;-60
2021/06/21 09:49:03;;;;;;;0.30;0.30;;;;;;;22.80;54.12;96193.78;29395;262;63009;-61
2021/06/21 09:49:34;;;;;;;0.30;0.30;;;;;;;22.82;53.39;96194.97;29395;232;63009;-62
2021/06/21 09:50:18;;;;;;;0.30;0.30;;;;;;;22.81;56.18;96200.91;29394;206;64008;-61
2021/06/21 09:50:49;;;;;;;0.30;0.30;;;;;;;22.79;55.74;96192.19;29394;238;64013;-61
2021/06/21 09:51:46;;;;;;;0.30;0.30;;;;;;;22.79;55.25;96203.25;29395;242;63005;-62
2021/06/21 09:52:37;;;;;;;0.30;0.30;;;;;;;22.81;54.26;96198.13;29395;207;63009;-66
2021/06/21 09:53:08;;;;;;;0.30;0.30;;;;;;;22.82;54.50;96202.47;29416;284;64009;-61
2021/06/21 09:53:40;;;;;;;0.30;0.30;;;;;;;22.82;58.41;96205.25;29395;246;63009;-61
2021/06/21 09:54:14;;;;;;;0.30;0.30;;;;;;;22.83;58.27;96204.06;29395;265;63005;-67
2021/06/21 09:54:45;;;;;;;0.30;0.30;;;;;;;22.86;53.81;96203.28;29395;315;63009;-59
2021/06/21 09:55:40;;;;;;;0.30;0.30;;;;;;;22.88;51.69;96196.16;29395;222;63004;-65
2021/06/21 09:56:48;;;;;;;0.30;0.30;;;;;;;22.89;51.74;96191.44;29395;278;63026;-70
2021/06/21 09:57:19;;;;;;;0.30;0.30;;;;;;;22.93;50.97;96203.31;29394;199;64009;-67
2021/06/21 09:58:11;;;;;;;0.30;0.30;;;;;;;22.92;50.82;96196.19;29396;214;63008;-63
2021/06/21 09:58:43;;;;;;;0.30;0.30;;;;;;;22.92;50.99;96196.19;29395;205;63005;-72
2021/06/21 09:59:28;;;;;;;0.30;0.30;;;;;;;22.92;50.79;96185.91;29396;243;63008;-63
2021/06/21 10:00:00;;;;;;;0.30;0.30;;;;;;;22.92;50.38;96188.69;29396;257;63019;-68
2021/06/21 10:00:32;;;;;;;0.30;0.30;;;;;;;22.91;50.86;96189.84;29396;288;63009;-69
2021/06/21 10:01:12;;;;;;;0.30;0.30;;;;;;;22.90;50.79;96193.00;29396;288;63005;-66
2021/06/21 10:01:43;;;;;;;0.30;0.30;;;;;;;22.89;50.65;96191.44;29396;207;63009;-67
2021/06/21 10:02:25;;;;;;;0.30;0.30;;;;;;;22.83;50.86;96193.00;29396;219;63004;-63
2021/06/21 10:03:14;;;;;;;0.30;0.30;;;;;;;22.81;51.81;96192.59;29395;242;64013;-64
2021/06/21 10:03:45;;;;;;;0.30;0.30;;;;;;;22.81;51.69;96195.38;29396;222;63004;-64
2021/06/21 10:04:26;;;;;;;0.30;0.30;;;;;;;22.83;52.18;96193.81;29396;196;63008;-64
2021/06/21 10:04:57;;;;;;;0.30;0.30;;;;;;;22.84;52.27;96191.81;29417;250;64008;-63
2021/06/21 10:05:28;;;;;;;0.30;0.30;;;;;;;22.86;52.43;96192.22;29395;277;64020;-63
2021/06/21 10:06:08;;;;;;;0.30;0.30;;;;;;;22.90;52.06;96195.78;29396;258;63010;-67
2021/06/21 10:06:39;;;;;;;0.30;0.30;;;;;;;22.92;52.09;96202.50;29418;202;63009;-62
2021/06/21 10:07:34;;;;;;;0.30;0.30;;;;;;;22.93;52.13;96197.75;29396;231;63018;-62
2021/06/21 10:08:07;;;;;;;0.30;0.30;;;;;;;22.99;57.65;96213.59;29395;292;64013;-60